ADDS METAR Data INFO
IDs: Format: Raw Decoded Include TAF

Data at: 1536 UTC 25 Feb 2018

KDWU 251521Z AUTO 26007KT 10SM BKN024 13/09 A3002 RMK AO2 PRESRR
KDWU 251456Z AUTO 25008KT 10SM SCT022 BKN044 OVC065 13/10 A2998 RMK AO2 RAB04E26 SLP151 P0001 60001 T01330100 51043
KDWU 251427Z AUTO 26007KT 10SM FEW014 SCT021 OVC039 13/11 A2998 RMK AO2 RAB04E26 PRESRR P0001
KDWU 251356Z AUTO 21011KT 10SM BKN028 OVC033 15/12 A2994 RMK AO2 SLP139 T01500117
KDWU 251256Z AUTO 21010KT 190V260 10SM FEW028 OVC034 15/12 A2991 RMK AO2 PRESRR SLP127 T01500122
KDWU 251156Z AUTO 22008KT 10SM FEW035 15/12 A2985 RMK AO2 RAE16 SLP108 P0000 60063 70114 T01500122 10178 20139 53015
KDWU 251056Z AUTO 21006KT 10SM -RA FEW017 SCT075 OVC100 15/13 A2982 RMK AO2 SLP099 P0000 T01500133 TSNO
KDWU 250956Z AUTO 17009KT 10SM -RA SCT075 OVC090 15/13 A2979 RMK AO2 PRESFR SLP088 P0006 T01500133
KDWU 250856Z AUTO 20003KT 10SM RA FEW055 OVC100 14/13 A2981 RMK AO2 SLP093 P0004 60057 T01390133 50000
KDWU 250756Z AUTO 23006G14KT 10SM RA FEW019 BKN055 OVC085 15/14 A2983 RMK AO2 SLP101 P0046 T01500139
KDWU 250738Z AUTO 25006KT 9SM +RA FEW014 BKN040 OVC050 15/14 A2983 RMK AO2 P0043
KDWU 250713Z AUTO 27008G22KT 3SM +RA BR SCT015 BKN024 OVC050 14/13 A2984 RMK AO2 P0024
KDWU 250703Z AUTO 31016G22KT 1 3/4SM +RA BR SCT017 BKN032 OVC070 14/13 A2984 RMK AO2 P0017
KDWU 250656Z AUTO 33008KT 5SM +RA BR FEW024 BKN050 OVC080 14/13 A2983 RMK AO2 PRESRR SLP101 P0007 T01440133
KDWU 250556Z AUTO 16005KT 10SM -RA FEW065 BKN090 BKN110 17/15 A2981 RMK AO2 RAE13B44 SLP093 P0000 60001 T01720150 10172 20111 56019
KDWU 250456Z AUTO 10004KT 10SM -RA OVC100 14/14 A2982 RMK AO2 SLP097 P0001 T01390139
KDWU 250428Z AUTO 09004KT 7SM -RA SCT001 BKN120 13/13 A2982 RMK AO2 P0000
KDWU 250420Z AUTO 09004KT 2 1/2SM -RA BR BKN001 OVC120 13/13 A2983 RMK AO2 VIS 1 1/4V5 P0000
KDWU 250416Z AUTO 09005KT 1SM -RA BR BKN001 OVC120 12/12 A2983 RMK AO2 VIS 1/2V4 P0000 RVRNO
KDWU 250406Z AUTO 09004KT 1 1/4SM -RA BR OVC001 12/12 A2983 RMK AO2 P0000
KDWU 250402Z AUTO 10005KT 3/4SM -RA BR OVC001 12/12 A2983 RMK AO2 P0000 RVRNO
KDWU 250356Z AUTO 10008KT 1SM -RA BR OVC003 12/12 A2984 RMK AO2 RAB09 SLP105 P0000 T01220122 401390111 RVRNO
KDWU 250345Z AUTO VRB04KT 1SM -RA BR OVC003 12/12 A2985 RMK AO2 RAB09 P0000 RVRNO
KDWU 250333Z AUTO 11006KT 1/2SM -RA FG OVC003 12/12 A2985 RMK AO2 RAB09 P0000 RVRNO
KDWU 250315Z AUTO 10005KT 3/4SM -RA BR OVC003 12/12 A2986 RMK AO2 RAB09 P0000 RVRNO
KDWU 250305Z AUTO 11004KT 1SM BR OVC003 12/12 A2986 RMK AO2 RVRNO
KDWU 250256Z AUTO 10004KT 1 1/4SM BR OVC003 12/12 A2987 RMK AO2 SLP113 60000 T01220117 58020
KDWU 250249Z AUTO 10005KT 1 1/4SM BR OVC003 12/12 A2987 RMK AO2
KDWU 250242Z AUTO 11003KT 2SM BR OVC003 12/12 A2988 RMK AO2
KDWU 250215Z AUTO 11003KT 6SM BR OVC003 12/12 A2989 RMK AO2
KDWU 250156Z AUTO 00000KT 3SM BR OVC005 11/11 A2990 RMK AO2 RAE09 SLP125 P0000 T01110111
KDWU 250056Z AUTO 00000KT 10SM -RA OVC005 12/12 A2993 RMK AO2 RAB44 SLP133 P0000 T01220117
KDWU 250054Z AUTO 09003KT 10SM -RA OVC005 12/12 A2992 RMK AO2 RAB44 P0000
KDWU 242356Z AUTO 10004KT 10SM OVC009 12/11 A2996 RMK AO2 RAB29E47 SLP144 P0000 60000 T01220111 10133 20122 58011
KDWU 242256Z AUTO 10004KT 10SM OVC009 12/11 A2998 RMK AO2 SLP152 T01220111
KDWU 242156Z AUTO 10004KT 10SM OVC009 12/11 A2999 RMK AO2 SLP155 T01220111
KDWU 242056Z AUTO 06004KT 10SM OVC009 12/11 A2999 RMK AO2 SLP155 60000 T01220111 58012
KDWU 241956Z AUTO 07003KT 10SM OVC009 12/11 A3001 RMK AO2 SLP162 T01220106
KDWU 241856Z AUTO VRB05KT 10SM OVC009 12/11 A3004 RMK AO2 RAE03B22E45 SLP171 P0000 T01220111
KDWU 241756Z AUTO 00000KT 10SM -RA OVC007 13/12 A3003 RMK AO2 SLP168 P0003 60050 T01330122 10133 20111 58016 TSNO
KDWU 241656Z AUTO 00000KT 9SM -RA BKN007 OVC018 13/12 A3005 RMK AO2 SLP174 P0024 T01280122
KDWU 241649Z AUTO 02003KT 10SM -RA SCT007 BKN018 OVC025 13/12 A3005 RMK AO2 P0023
KDWU 241632Z AUTO 11003KT 3SM RA BR BKN007 BKN026 OVC048 13/12 A3005 RMK AO2 CIG 005V011 P0022
KDWU 241625Z AUTO 00000KT 1 3/4SM +RA BR BKN007 BKN026 OVC048 13/12 A3005 RMK AO2 CIG 004V011 P0020
KDWU 241614Z AUTO 00000KT 3SM +RA BR BKN007 OVC014 12/12 A3007 RMK AO2 P0015
KDWU 241608Z AUTO 27004KT 1 1/2SM +RA BR BKN007 OVC012 12/12 A3008 RMK AO2 VIS 3/4V3 CIG 004V010 P0011
KDWU 241601Z AUTO 00000KT 2SM +RA BR BKN007 OVC012 13/12 A3007 RMK AO2 VIS 3/4V5 CIG 005V010 P0005
KDWU 241556Z AUTO 00000KT 5SM RA BR SCT007 OVC012 12/12 A3008 RMK AO2 SLP185 P0013 T01220122
KDWU 241522Z AUTO 00000KT 3SM RA BR BKN007 OVC013 12/12 A3007 RMK AO2 CIG 006V011 P0008
KDWU 241520Z AUTO 03003KT 1 1/2SM RA BR BKN007 OVC013 12/12 A3007 RMK AO2 VIS 1/2V5 CIG 006V012 P0007
KDWU 241511Z AUTO 32004KT 3/4SM +RA BR OVC007 11/11 A3007 RMK AO2 P0006 RVRNO
KDWU 241504Z AUTO 30003KT 1 3/4SM RA BR OVC007 11/11 A3008 RMK AO2 P0003
KDWU 241456Z AUTO 30003KT 6SM RA BR OVC007 13/12 A3008 RMK AO2 SLP184 P0006 60010 T01280122 56009
KDWU 241356Z AUTO 10004KT 6SM -RA BR OVC009 13/12 A3008 RMK AO2 SLP187 P0003 T01280122
KDWU 241351Z AUTO 10004KT 4SM RA BR OVC009 13/12 A3009 RMK AO2 P0003
KDWU 241341Z AUTO 05003KT 2SM -RA BR OVC009 12/11 A3009 RMK AO2 CIG 006V011 P0002 TSNO
KDWU 241256Z AUTO 00000KT 6SM RA BR OVC009 13/12 A3010 RMK AO2 RAB03 SLP193 P0001 T01330122
KDWU 241156Z AUTO 04005KT 10SM OVC009 13/12 A3011 RMK AO2 RAE23 SLP195 P0001 60006 70006 T01280122 10139 20111 56005
KDWU 241125Z AUTO 02003KT 10SM BKN009 BKN016 OVC023 13/13 A3011 RMK AO2 RAE23 CIG 006V014 P0001
KDWU 241123Z AUTO VRB03KT 10SM SCT007 BKN015 OVC028 13/13 A3011 RMK AO2 RAE23 P0001
KDWU 241112Z AUTO 21006G21KT 8SM -RA BKN007 BKN015 OVC028 13/13 A3011 RMK AO2 CIG 006V011 P0001
KDWU 241056Z AUTO VRB04KT 1 1/4SM -RA BR BKN007 OVC015 12/12 A3012 RMK AO2 VIS 1/2V5 RAB29 SLP199 P0000 T01170117
KDWU 241047Z AUTO 00000KT 2 1/2SM -RA BR FEW007 OVC015 13/13 A3012 RMK AO2 VIS 1/2V5 RAB29 P0000
KDWU 241042Z AUTO 00000KT 1SM -RA BR FEW007 OVC015 12/12 A3012 RMK AO2 VIS 1/4V5 RAB29 P0000 RVRNO
KDWU 241035Z AUTO 00000KT 2SM -RA BR FEW007 OVC015 13/13 A3012 RMK AO2 VIS 3/4V5 RAB29 P0000
KDWU 241031Z AUTO 24003KT 1SM -RA BR OVC015 13/13 A3011 RMK AO2 VIS 1/2V5 RAB29 P0000 RVRNO
KDWU 241012Z AUTO 27003KT 1/2SM FG OVC015 12/12 A3012 RMK AO2 RVRNO
KDWU 240952Z AUTO 00000KT 1/4SM FG OVC015 12/12 A3011 RMK AO2 RAE40 SLP196 P0000 T01220122 RVRNO
KDWU 240951Z AUTO 00000KT 1/4SM FG OVC015 12/12 A3011 RMK AO2 RAE40 P0000 RVRNO
KDWU 240940Z AUTO 00000KT 3/4SM BR OVC015 13/13 A3011 RMK AO2 RAE40 P0000 RVRNO
KDWU 240924Z AUTO 00000KT 1/4SM -RA FG OVC015 13/13 A3011 RMK AO2 P0000 RVRNO
KDWU 240917Z AUTO 00000KT 3/4SM BR OVC013 13/13 A3011 RMK AO2 RAE15 P0000 RVRNO
KDWU 240904Z AUTO 00000KT 1/2SM -RA FG OVC013 13/12 A3012 RMK AO2 P0000 RVRNO
KDWU 240856Z AUTO 00000KT 3/4SM -RA BR OVC015 13/13 A3012 RMK AO2 VIS 1/4V3 SLP200 P0000 60005 T01280128 58019 RVRNO
KDWU 240849Z AUTO 00000KT 3/4SM -RA BR OVC015 13/12 A3013 RMK AO2 VIS 1/4V5 P0000 RVRNO
KDWU 240838Z AUTO 24004KT 1SM -RA BR OVC017 13/13 A3014 RMK AO2 P0000 RVRNO
KDWU 240817Z AUTO 00000KT 1/2SM -RA FG OVC017 12/12 A3014 RMK AO2 P0000 RVRNO
KDWU 240810Z AUTO 00000KT 3/4SM -RA BR OVC017 12/12 A3015 RMK AO2 P0000 RVRNO
KDWU 240756Z AUTO 00000KT 1/2SM -RA FG OVC017 12/12 A3015 RMK AO2 RAB10 SLP208 P0005 T01220117 RVRNO
KDWU 240751Z AUTO 00000KT 3/4SM -RA BR OVC017 12/12 A3015 RMK AO2 VIS 1/4V4 RAB10 P0005 RVRNO
KDWU 240716Z AUTO 00000KT 1 3/4SM +RA BR OVC017 12/12 A3016 RMK AO2 VIS 3/4V5 RAB10 P0003
KDWU 240656Z AUTO 27003KT 8SM OVC017 13/13 A3017 RMK AO2 RAB0559E46 SLP214 P0000 T01280128
KDWU 240631Z AUTO 00000KT 7SM OVC017 12/12 A3018 RMK AO2 RAB0559E28 P0000 TSNO
KDWU 240623Z AUTO 00000KT 2SM -RA BR OVC019 12/12 A3018 RMK AO2 RAB0559 P0000
KDWU 240620Z AUTO 00000KT 1SM -RA BR OVC019 12/12 A3018 RMK AO2 RAB0559 P0000 RVRNO
KDWU 240617Z AUTO 05003KT 1/2SM -RA FG OVC019 11/11 A3018 RMK AO2 RAB0559 P0000 RVRNO
KDWU 240609Z AUTO 06003KT 3/4SM -RA BR OVC019 11/11 A3018 RMK AO2 RAB0559 P0000 TSNO RVRNO
KDWU 240603Z AUTO 00000KT 1 1/4SM -RA BR OVC019 12/12 A3019 RMK AO2 VIS 1/2V5 RAB0559 P0000
KDWU 240556Z AUTO 00000KT 2SM BR BKN019 12/12 A3018 RMK AO2 RAE43 SLP220 P0000 60000 T01170117 10172 20111 55008
KDWU 240544Z AUTO 00000KT 9SM FEW002 BKN021 11/11 A3018 RMK AO2 RAE43 P0000
KDWU 240536Z AUTO 00000KT 3SM -RA BR FEW002 SCT019 12/12 A3018 RMK AO2 P0000
KDWU 240532Z AUTO 00000KT 1 1/4SM -RA BR SCT002 12/12 A3018 RMK AO2 VIS 1/2V5 P0000
KDWU 240522Z AUTO 04003KT 3/4SM -RA BR VV002 12/12 A3018 RMK AO2 VIS 1/4V3 P0000 RVRNO
KDWU 240518Z AUTO 00000KT 1 1/4SM -RA BR SCT002 12/11 A3018 RMK AO2 VIS 3/4V4 P0000
KDWU 240507Z AUTO 00000KT 3/4SM -RA BR VV002 11/11 A3018 RMK AO2 VIS 1/2V5 P0000 RVRNO
KDWU 240503Z AUTO 00000KT 1 1/4SM -RA BR FEW002 12/12 A3018 RMK AO2 VIS 1/2V5 P0000
KDWU 240456Z AUTO 00000KT 2 1/2SM -RA BR CLR 13/13 A3018 RMK AO2 VIS 3/4V5 RAB02 SLP219 P0000 T01280128
KDWU 240439Z AUTO 00000KT 1 3/4SM -RA BR CLR 13/13 A3018 RMK AO2 VIS 3/4V5 RAB02 P0000
KDWU 240429Z AUTO 00000KT 3SM -RA BR CLR 12/12 A3018 RMK AO2 RAB02 P0000
KDWU 240400Z AUTO 00000KT 1 1/2SM BR CLR 13/12 A3018 RMK AO2
KDWU 240356Z AUTO 00000KT 7SM CLR 13/13 A3018 RMK AO2 RAB32E41 SLP220 P0000 T01280128 402390078
KDWU 240339Z AUTO 00000KT 3SM -RA BR CLR 13/13 A3019 RMK AO2 RAB32 P0000